Sherman, Wisconsin
Current Conditions -  °F | °C
As of 9:00 AM on Monday 24 Nov 2014 (Local Time) from KPBH Reporting Station
Light Snow Light Snow  
Wind Chill: 26°   Ceiling: 600
Heat Index: 32°   Visibility: 1.2mi
Dew Point: 32°   Wind: 7mph
Humidity: 100%   Direction: 320°NW
Pressure: 29.14"   Gusts: NA
Location:  45.9599°N, 90.2362°W
Report Text: KPBH 241500Z AUTO 32006KT 1 1/4SM -SN OVC006 00/00 A2914 RMK AO2 T00000000
Loading
Personal Weather Stations






























Interactive Weather Map New forecast layout! Learn more

10-Day Weather Forecast

Advertisements
Track Severe Weather on mobile